Time,TemperatureF,DewpointF,PressureIn,WindDirection,WindDirectionDegrees,WindSpeedMPH,WindSpeedGustMPH,Humidity,HourlyPrecipIn,Conditions,Clouds,dailyrainin,SoftwareType,DateUTC
2013-05-10 00:00:00,55.0,44.0,29.98,NNE,30,17.0,-999.0,67,-99.99,,,-99.99,,2013-05-10 00:00:00,
2013-05-10 00:21:00,55.0,44.0,29.98,NNE,30,17.0,-999.0,67,-99.99,,,-99.99,,2013-05-10 00:21:00,
2013-05-10 00:31:00,55.0,44.0,29.98,NNE,30,17.0,-999.0,67,-99.99,,,-99.99,,2013-05-10 00:31:00,
2013-05-10 00:42:00,55.0,44.0,29.98,NNE,30,17.0,-999.0,67,-99.99,,,-99.99,,2013-05-10 00:42:00,
2013-05-10 00:51:00,55.0,44.0,29.98,NNE,30,17.0,-999.0,67,-99.99,,,-99.99,,2013-05-10 00:51:00,
2013-05-10 01:00:00,52.0,41.0,29.99,NE,40,20.0,-999.0,66,-99.99,,,-99.99,,2013-05-10 01:00:00,
2013-05-10 01:21:00,52.0,41.0,29.99,NE,40,20.0,-999.0,66,-99.99,,,-99.99,,2013-05-10 01:21:00,
2013-05-10 01:31:00,52.0,41.0,29.99,NE,40,20.0,-999.0,66,-99.99,,,-99.99,,2013-05-10 01:31:00,
2013-05-10 01:41:00,52.0,41.0,29.99,NE,40,20.0,-999.0,66,-99.99,,,-99.99,,2013-05-10 01:41:00,
2013-05-10 01:52:00,52.0,41.0,29.99,NE,40,20.0,-999.0,66,-99.99,,,-99.99,,2013-05-10 01:52:00,
2013-05-10 02:00:00,51.0,41.0,30.01,NE,50,15.0,-999.0,67,-99.99,,,-99.99,,2013-05-10 02:00:00,
2013-05-10 02:21:00,51.0,41.0,30.01,NE,50,15.0,-999.0,67,-99.99,,,-99.99,,2013-05-10 02:21:00,
2013-05-10 02:31:00,51.0,41.0,30.01,NE,50,15.0,-999.0,67,-99.99,,,-99.99,,2013-05-10 02:31:00,
2013-05-10 02:42:00,51.0,41.0,30.01,NE,50,15.0,-999.0,67,-99.99,,,-99.99,,2013-05-10 02:42:00,
2013-05-10 02:52:00,51.0,41.0,30.01,NE,50,15.0,-999.0,67,-99.99,,,-99.99,,2013-05-10 02:52:00,
2013-05-10 03:00:00,46.0,40.0,30.03,ENE,60,14.0,-999.0,79,-99.99,,,-99.99,,2013-05-10 03:00:00,
2013-05-10 03:21:00,46.0,40.0,30.03,ENE,60,14.0,-999.0,79,-99.99,,,-99.99,,2013-05-10 03:21:00,
2013-05-10 03:32:00,46.0,40.0,30.03,ENE,60,14.0,-999.0,79,-99.99,,,-99.99,,2013-05-10 03:32:00,
2013-05-10 03:42:00,46.0,40.0,30.03,ENE,60,14.0,-999.0,79,-99.99,,,-99.99,,2013-05-10 03:42:00,
2013-05-10 03:52:00,46.0,40.0,30.03,ENE,60,14.0,-999.0,79,-99.99,,,-99.99,,2013-05-10 03:52:00,
2013-05-10 04:00:00,48.0,39.0,30.02,ENE,70,17.0,-999.0,71,-99.99,,,-99.99,,2013-05-10 04:00:00,
2013-05-10 04:22:00,48.0,39.0,30.02,ENE,70,17.0,-999.0,71,-99.99,,,-99.99,,2013-05-10 04:22:00,
2013-05-10 04:33:00,48.0,39.0,30.02,ENE,70,17.0,-999.0,71,-99.99,,,-99.99,,2013-05-10 04:33:00,
2013-05-10 04:42:00,48.0,39.0,30.02,ENE,70,17.0,-999.0,71,-99.99,,,-99.99,,2013-05-10 04:42:00,
2013-05-10 04:52:00,48.0,39.0,30.02,ENE,70,17.0,-999.0,71,-99.99,,,-99.99,,2013-05-10 04:52:00,
2013-05-10 05:00:00,47.0,38.0,30.05,NE,40,10.0,-999.0,69,-99.99,,,-99.99,,2013-05-10 05:00:00,
2013-05-10 05:21:00,47.0,38.0,30.05,NE,40,10.0,-999.0,69,-99.99,,,-99.99,,2013-05-10 05:21:00,
2013-05-10 05:32:00,47.0,38.0,30.05,NE,40,10.0,-999.0,69,-99.99,,,-99.99,,2013-05-10 05:32:00,
2013-05-10 05:42:00,47.0,38.0,30.05,NE,40,10.0,-999.0,69,-99.99,,,-99.99,,2013-05-10 05:42:00,
2013-05-10 05:52:00,47.0,38.0,30.05,NE,40,10.0,-999.0,69,-99.99,,,-99.99,,2013-05-10 05:52:00,
2013-05-10 06:00:00,43.0,37.0,30.05,NE,50,13.0,-999.0,79,-99.99,,,-99.99,,2013-05-10 06:00:00,
2013-05-10 06:21:00,43.0,37.0,30.05,NE,50,13.0,-999.0,79,-99.99,,,-99.99,,2013-05-10 06:21:00,
2013-05-10 06:32:00,43.0,37.0,30.05,NE,50,13.0,-999.0,79,-99.99,,,-99.99,,2013-05-10 06:32:00,
2013-05-10 06:41:00,43.0,37.0,30.05,NE,50,13.0,-999.0,79,-99.99,,,-99.99,,2013-05-10 06:41:00,
2013-05-10 06:51:00,43.0,37.0,30.05,NE,50,13.0,-999.0,79,-99.99,,,-99.99,,2013-05-10 06:51:00,
2013-05-10 07:00:00,41.0,37.0,30.03,ENE,60,16.0,-999.0,83,-99.99,,,-99.99,,2013-05-10 07:00:00,
2013-05-10 07:21:00,41.0,37.0,30.03,ENE,60,16.0,-999.0,83,-99.99,,,-99.99,,2013-05-10 07:21:00,
2013-05-10 07:31:00,41.0,37.0,30.03,ENE,60,16.0,-999.0,83,-99.99,,,-99.99,,2013-05-10 07:31:00,
2013-05-10 07:41:00,41.0,37.0,30.03,ENE,60,16.0,-999.0,83,-99.99,,,-99.99,,2013-05-10 07:41:00,
2013-05-10 07:52:00,41.0,37.0,30.03,ENE,60,16.0,-999.0,83,-99.99,,,-99.99,,2013-05-10 07:52:00,
2013-05-10 08:00:00,39.0,37.0,30.03,ENE,60,11.0,-999.0,91,-99.99,,,-99.99,,2013-05-10 08:00:00,
2013-05-10 08:21:00,39.0,37.0,30.03,ENE,60,11.0,-999.0,91,-99.99,,,-99.99,,2013-05-10 08:21:00,
2013-05-10 08:32:00,39.0,37.0,30.03,ENE,60,11.0,-999.0,91,-99.99,,,-99.99,,2013-05-10 08:32:00,
2013-05-10 08:41:00,39.0,37.0,30.03,ENE,60,11.0,-999.0,91,-99.99,,,-99.99,,2013-05-10 08:41:00,
2013-05-10 08:51:00,39.0,37.0,30.03,ENE,60,11.0,-999.0,91,-99.99,,,-99.99,,2013-05-10 08:51:00,
2013-05-10 09:00:00,37.0,36.0,30.06,NE,50,11.0,-999.0,95,-99.99,,,-99.99,,2013-05-10 09:00:00,
2013-05-10 09:21:00,37.0,36.0,30.06,NE,50,11.0,-999.0,95,-99.99,,,-99.99,,2013-05-10 09:21:00,
2013-05-10 09:32:00,37.0,36.0,30.06,NE,50,11.0,-999.0,95,-99.99,,,-99.99,,2013-05-10 09:32:00,
2013-05-10 09:42:00,37.0,36.0,30.06,NE,50,11.0,-999.0,95,-99.99,,,-99.99,,2013-05-10 09:42:00,
2013-05-10 09:52:00,37.0,36.0,30.06,NE,50,11.0,-999.0,95,-99.99,,,-99.99,,2013-05-10 09:52:00,
2013-05-10 10:00:00,36.0,36.0,30.07,NE,40,9.0,-999.0,97,-99.99,,,-99.99,,2013-05-10 10:00:00,
2013-05-10 10:22:00,36.0,36.0,30.07,NE,40,9.0,-999.0,97,-99.99,,,-99.99,,2013-05-10 10:22:00,
2013-05-10 10:32:00,36.0,36.0,30.07,NE,40,9.0,-999.0,97,-99.99,,,-99.99,,2013-05-10 10:32:00,
2013-05-10 10:41:00,36.0,36.0,30.07,NE,40,9.0,-999.0,97,-99.99,,,-99.99,,2013-05-10 10:41:00,
2013-05-10 10:52:00,36.0,36.0,30.07,NE,40,9.0,-999.0,97,-99.99,,,-99.99,,2013-05-10 10:52:00,
2013-05-10 11:00:00,35.0,35.0,30.07,NNE,30,14.0,-999.0,97,-99.99,,,-99.99,,2013-05-10 11:00:00,
2013-05-10 11:21:00,35.0,35.0,30.07,NNE,30,14.0,-999.0,97,-99.99,,,-99.99,,2013-05-10 11:21:00,
2013-05-10 11:31:00,35.0,35.0,30.07,NNE,30,14.0,-999.0,97,-99.99,,,-99.99,,2013-05-10 11:31:00,
2013-05-10 11:42:00,35.0,35.0,30.07,NNE,30,14.0,-999.0,97,-99.99,,,-99.99,,2013-05-10 11:42:00,
2013-05-10 11:51:00,35.0,35.0,30.07,NNE,30,14.0,-999.0,97,-99.99,,,-99.99,,2013-05-10 11:51:00,
2013-05-10 12:00:00,36.0,35.0,30.05,NE,40,16.0,-999.0,94,-99.99,,,-99.99,,2013-05-10 12:00:00,
2013-05-10 12:21:00,36.0,35.0,30.05,NE,40,16.0,-999.0,94,-99.99,,,-99.99,,2013-05-10 12:21:00,
2013-05-10 12:32:00,36.0,35.0,30.05,NE,40,16.0,-999.0,94,-99.99,,,-99.99,,2013-05-10 12:32:00,
2013-05-10 12:41:00,36.0,35.0,30.05,NE,40,16.0,-999.0,94,-99.99,,,-99.99,,2013-05-10 12:41:00,
2013-05-10 12:51:00,36.0,35.0,30.05,NE,40,16.0,-999.0,94,-99.99,,,-99.99,,2013-05-10 12:51:00,
2013-05-10 13:00:00,37.0,35.0,30.05,ENE,70,15.0,-999.0,93,-99.99,,,-99.99,,2013-05-10 13:00:00,
2013-05-10 13:21:00,37.0,35.0,30.05,ENE,70,15.0,-999.0,93,-99.99,,,-99.99,,2013-05-10 13:21:00,
2013-05-10 13:31:00,37.0,35.0,30.05,ENE,70,15.0,-999.0,93,-99.99,,,-99.99,,2013-05-10 13:31:00,
2013-05-10 13:41:00,37.0,35.0,30.05,ENE,70,15.0,-999.0,93,-99.99,,,-99.99,,2013-05-10 13:41:00,
2013-05-10 13:52:00,37.0,35.0,30.05,ENE,70,15.0,-999.0,93,-99.99,,,-99.99,,2013-05-10 13:52:00,
2013-05-10 14:00:00,37.0,35.0,30.04,NE,50,10.0,-999.0,91,-99.99,,,-99.99,,2013-05-10 14:00:00,
2013-05-10 14:21:00,37.0,35.0,30.04,NE,50,10.0,-999.0,91,-99.99,,,-99.99,,2013-05-10 14:21:00,
2013-05-10 14:32:00,37.0,35.0,30.04,NE,50,10.0,-999.0,91,-99.99,,,-99.99,,2013-05-10 14:32:00,
2013-05-10 14:41:00,37.0,35.0,30.04,NE,50,10.0,-999.0,91,-99.99,,,-99.99,,2013-05-10 14:41:00,
2013-05-10 14:51:00,37.0,35.0,30.04,NE,50,10.0,-999.0,91,-99.99,,,-99.99,,2013-05-10 14:51:00,
2013-05-10 15:00:00,38.0,35.0,30.04,ENE,60,20.0,-999.0,89,-99.99,,,-99.99,,2013-05-10 15:00:00,
2013-05-10 15:21:00,38.0,35.0,30.04,ENE,60,20.0,-999.0,89,-99.99,,,-99.99,,2013-05-10 15:21:00,
2013-05-10 15:32:00,38.0,35.0,30.04,ENE,60,20.0,-999.0,89,-99.99,,,-99.99,,2013-05-10 15:32:00,
2013-05-10 15:42:00,38.0,35.0,30.04,ENE,60,20.0,-999.0,89,-99.99,,,-99.99,,2013-05-10 15:42:00,
2013-05-10 15:52:00,38.0,35.0,30.04,ENE,60,20.0,-999.0,89,-99.99,,,-99.99,,2013-05-10 15:52:00,
2013-05-10 16:00:00,37.0,34.0,30.04,ENE,60,14.0,-999.0,87,-99.99,,,-99.99,,2013-05-10 16:00:00,
2013-05-10 16:23:00,37.0,34.0,30.04,ENE,60,14.0,-999.0,87,-99.99,,,-99.99,,2013-05-10 16:23:00,
2013-05-10 16:32:00,37.0,34.0,30.04,ENE,60,14.0,-999.0,87,-99.99,,,-99.99,,2013-05-10 16:32:00,
2013-05-10 16:42:00,37.0,34.0,30.04,ENE,60,14.0,-999.0,87,-99.99,,,-99.99,,2013-05-10 16:42:00,
2013-05-10 16:52:00,37.0,34.0,30.04,ENE,60,14.0,-999.0,87,-99.99,,,-99.99,,2013-05-10 16:52:00,
2013-05-10 17:00:00,-999.0,-99.9,-100.00,ENE,60,11.0,-999.0,85,-99.99,,,-99.99,,2013-05-10 17:00:00,
2013-05-10 17:21:00,38.0,34.0,30.05,ENE,60,11.0,-999.0,85,-99.99,,,-99.99,,2013-05-10 17:21:00,
2013-05-10 17:32:00,38.0,34.0,30.05,ENE,60,11.0,-999.0,85,-99.99,,,-99.99,,2013-05-10 17:32:00,
2013-05-10 17:42:00,38.0,34.0,30.05,ENE,60,11.0,-999.0,85,-99.99,,,-99.99,,2013-05-10 17:42:00,
2013-05-10 17:51:00,38.0,34.0,30.05,ENE,60,11.0,-999.0,85,-99.99,,,-99.99,,2013-05-10 17:51:00,
2013-05-10 18:00:00,40.0,33.0,30.04,NE,40,11.0,-999.0,76,-99.99,,,-99.99,,2013-05-10 18:00:00,
2013-05-10 18:21:00,40.0,33.0,30.04,NE,40,11.0,-999.0,76,-99.99,,,-99.99,,2013-05-10 18:21:00,
2013-05-10 18:34:00,40.0,33.0,30.04,NE,40,11.0,-999.0,76,-99.99,,,-99.99,,2013-05-10 18:34:00,
2013-05-10 18:43:00,40.0,33.0,30.04,NE,40,11.0,-999.0,76,-99.99,,,-99.99,,2013-05-10 18:43:00,
2013-05-10 18:54:00,40.0,33.0,30.04,NE,40,11.0,-999.0,76,-99.99,,,-99.99,,2013-05-10 18:54:00,
2013-05-10 19:00:00,41.0,34.0,30.04,NE,50,11.0,-999.0,77,-99.99,,,-99.99,,2013-05-10 19:00:00,
2013-05-10 19:21:00,41.0,34.0,30.04,NE,50,11.0,-999.0,77,-99.99,,,-99.99,,2013-05-10 19:21:00,
2013-05-10 19:32:00,41.0,34.0,30.04,NE,50,11.0,-999.0,77,-99.99,,,-99.99,,2013-05-10 19:32:00,
2013-05-10 19:41:00,41.0,34.0,30.04,NE,50,11.0,-999.0,77,-99.99,,,-99.99,,2013-05-10 19:41:00,
2013-05-10 19:52:00,41.0,34.0,30.04,NE,50,11.0,-999.0,77,-99.99,,,-99.99,,2013-05-10 19:52:00,
2013-05-10 20:00:00,43.0,34.0,30.03,NE,40,10.0,-999.0,70,-99.99,,,-99.99,,2013-05-10 20:00:00,
2013-05-10 20:21:00,43.0,34.0,30.03,NE,40,10.0,-999.0,70,-99.99,,,-99.99,,2013-05-10 20:21:00,
2013-05-10 20:31:00,43.0,34.0,30.03,NE,40,10.0,-999.0,70,-99.99,,,-99.99,,2013-05-10 20:31:00,
2013-05-10 20:41:00,43.0,34.0,30.03,NE,40,10.0,-999.0,70,-99.99,,,-99.99,,2013-05-10 20:41:00,
2013-05-10 20:52:00,43.0,34.0,30.03,NE,40,10.0,-999.0,70,-99.99,,,-99.99,,2013-05-10 20:52:00,
2013-05-10 21:00:00,43.0,35.0,30.01,North,10,10.0,-999.0,72,-99.99,,,-99.99,,2013-05-10 21:00:00,
2013-05-10 21:24:00,43.0,35.0,30.01,North,10,10.0,-999.0,72,-99.99,,,-99.99,,2013-05-10 21:24:00,
2013-05-10 21:32:00,43.0,35.0,30.01,North,10,10.0,-999.0,72,-99.99,,,-99.99,,2013-05-10 21:32:00,
2013-05-10 21:42:00,43.0,35.0,30.01,North,10,10.0,-999.0,72,-99.99,,,-99.99,,2013-05-10 21:42:00,
2013-05-10 21:52:00,43.0,35.0,30.01,North,10,10.0,-999.0,72,-99.99,,,-99.99,,2013-05-10 21:52:00,
2013-05-10 22:00:00,43.0,35.0,30.00,NE,50,9.0,-999.0,73,-99.99,,,-99.99,,2013-05-10 22:00:00,
2013-05-10 22:22:00,43.0,35.0,30.00,NE,50,9.0,-999.0,73,-99.99,,,-99.99,,2013-05-10 22:22:00,
2013-05-10 22:32:00,43.0,35.0,30.00,NE,50,9.0,-999.0,73,-99.99,,,-99.99,,2013-05-10 22:32:00,
2013-05-10 22:42:00,43.0,35.0,30.00,NE,50,9.0,-999.0,73,-99.99,,,-99.99,,2013-05-10 22:42:00,
2013-05-10 22:52:00,43.0,35.0,30.00,NE,50,9.0,-999.0,73,-99.99,,,-99.99,,2013-05-10 22:52:00,
2013-05-10 23:00:00,43.0,31.0,29.99,NNE,30,5.0,-999.0,61,-99.99,,,-99.99,,2013-05-10 23:00:00,
2013-05-10 23:21:00,43.0,31.0,29.99,NNE,30,5.0,-999.0,61,-99.99,,,-99.99,,2013-05-10 23:21:00,
2013-05-10 23:32:00,43.0,31.0,29.99,NNE,30,5.0,-999.0,61,-99.99,,,-99.99,,2013-05-10 23:32:00,
2013-05-10 23:41:00,43.0,31.0,29.99,NNE,30,5.0,-999.0,61,-99.99,,,-99.99,,2013-05-10 23:41:00,
2013-05-10 23:52:00,43.0,31.0,29.99,NNE,30,5.0,-999.0,61,-99.99,,,-99.99,,2013-05-10 23:52:00,